Time,TemperatureF,DewpointF,PressureIn,WindDirection,WindDirectionDegrees,WindSpeedMPH,WindSpeedGustMPH,Humidity,HourlyPrecipIn,Conditions,Clouds,dailyrainin,SoftwareType,DateUTC
2013-07-13 00:01:00,69.8,68.0,30.01,WNW,284,0.0,0.0,94,0.00,,,0.00,Wunderground v.1.15,2013-07-13 04:01:00,
2013-07-13 00:03:00,69.8,68.0,30.01,West,273,0.0,0.0,94,0.00,,,0.00,Wunderground v.1.15,2013-07-13 04:03:00,
2013-07-13 00:06:00,69.8,68.0,30.01,WNW,283,0.0,0.0,94,0.00,,,0.00,Wunderground v.1.15,2013-07-13 04:06:00,
2013-07-13 00:08:00,69.8,68.0,30.01,WNW,284,0.0,0.0,94,0.00,,,0.00,Wunderground v.1.15,2013-07-13 04:08:00,
2013-07-13 00:10:00,69.8,68.0,30.01,WNW,284,0.0,0.0,94,0.00,,,0.00,Wunderground v.1.15,2013-07-13 04:10:00,
2013-07-13 00:15:00,69.9,68.1,30.01,West,281,0.0,0.0,94,0.00,,,0.00,Wunderground v.1.15,2013-07-13 04:15:00,
2013-07-13 00:20:00,69.8,68.0,30.01,West,281,0.0,0.0,94,0.00,,,0.00,Wunderground v.1.15,2013-07-13 04:20:00,
2013-07-13 00:26:00,69.8,68.0,30.02,West,281,0.0,0.0,94,0.00,,,0.00,Wunderground v.1.15,2013-07-13 04:26:00,
2013-07-13 00:32:00,69.8,68.0,30.02,West,281,0.0,0.0,94,0.00,,,0.00,Wunderground v.1.15,2013-07-13 04:32:00,
2013-07-13 00:37:00,69.7,68.2,30.02,West,281,0.0,0.0,95,0.00,,,0.00,Wunderground v.1.15,2013-07-13 04:37:00,
2013-07-13 00:43:00,69.5,68.0,30.02,WNW,297,0.0,0.0,95,0.00,,,0.00,Wunderground v.1.15,2013-07-13 04:43:00,
2013-07-13 00:48:00,69.4,67.9,30.02,WNW,292,0.0,0.0,95,0.00,,,0.00,Wunderground v.1.15,2013-07-13 04:48:00,
2013-07-13 00:53:00,69.3,67.8,30.02,WNW,282,0.0,0.0,95,0.00,,,0.00,Wunderground v.1.15,2013-07-13 04:53:00,
2013-07-13 00:58:00,69.3,67.8,30.02,WNW,297,0.0,0.0,95,0.00,,,0.00,Wunderground v.1.15,2013-07-13 04:58:00,
2013-07-13 01:03:00,69.3,67.8,30.02,WNW,296,0.0,0.0,95,0.00,,,0.00,Wunderground v.1.15,2013-07-13 05:03:00,
2013-07-13 01:09:00,69.2,67.7,30.02,WNW,297,0.0,0.0,95,0.00,,,0.00,Wunderground v.1.15,2013-07-13 05:09:00,
2013-07-13 01:14:00,69.2,67.7,30.02,WNW,297,0.0,0.0,95,0.00,,,0.00,Wunderground v.1.15,2013-07-13 05:14:00,
2013-07-13 01:20:00,69.1,67.9,30.02,West,265,0.0,0.0,96,0.00,,,0.00,Wunderground v.1.15,2013-07-13 05:20:00,
2013-07-13 01:26:00,69.1,67.9,30.02,West,277,0.0,0.0,96,0.00,,,0.00,Wunderground v.1.15,2013-07-13 05:26:00,
2013-07-13 01:32:00,69.2,68.0,30.02,West,277,0.0,0.0,96,0.00,,,0.00,Wunderground v.1.15,2013-07-13 05:32:00,
2013-07-13 01:38:00,69.2,68.0,30.02,West,277,0.0,0.0,96,0.00,,,0.00,Wunderground v.1.15,2013-07-13 05:38:00,
2013-07-13 01:44:00,69.1,67.9,30.02,West,277,0.0,0.0,96,0.00,,,0.00,Wunderground v.1.15,2013-07-13 05:44:00,
2013-07-13 01:49:00,69.0,67.8,30.02,West,277,0.0,0.0,96,0.00,,,0.00,Wunderground v.1.15,2013-07-13 05:49:00,
2013-07-13 01:55:00,69.0,67.8,30.02,West,277,0.0,0.0,96,0.00,,,0.00,Wunderground v.1.15,2013-07-13 05:55:00,
2013-07-13 02:00:00,69.0,67.8,30.02,West,281,0.0,0.0,96,0.00,,,0.00,Wunderground v.1.15,2013-07-13 06:00:00,
2013-07-13 02:05:00,69.0,67.8,30.02,West,281,0.0,0.0,96,0.00,,,0.00,Wunderground v.1.15,2013-07-13 06:05:00,
2013-07-13 02:10:00,69.0,67.8,30.02,West,281,0.0,0.0,96,0.00,,,0.00,Wunderground v.1.15,2013-07-13 06:10:00,
2013-07-13 02:15:00,69.0,67.8,30.02,WNW,295,0.0,0.0,96,0.00,,,0.00,Wunderground v.1.15,2013-07-13 06:15:00,
2013-07-13 02:20:00,68.9,67.7,30.02,WNW,300,0.0,0.0,96,0.00,,,0.00,Wunderground v.1.15,2013-07-13 06:20:00,
2013-07-13 02:25:00,68.9,67.7,30.02,NW,306,0.0,0.0,96,0.00,,,0.00,Wunderground v.1.15,2013-07-13 06:25:00,
2013-07-13 02:30:00,68.9,67.7,30.02,WNW,302,0.0,0.0,96,0.00,,,0.00,Wunderground v.1.15,2013-07-13 06:30:00,
2013-07-13 02:35:00,68.8,67.6,30.02,WNW,290,0.0,0.0,96,0.00,,,0.00,Wunderground v.1.15,2013-07-13 06:35:00,
2013-07-13 02:40:00,68.8,67.9,30.02,WNW,293,0.0,0.0,97,0.00,,,0.00,Wunderground v.1.15,2013-07-13 06:40:00,
2013-07-13 02:45:00,68.8,67.9,30.02,WNW,293,0.0,0.0,97,0.00,,,0.00,Wunderground v.1.15,2013-07-13 06:45:00,
2013-07-13 02:50:00,68.7,67.8,30.02,WNW,293,0.0,0.0,97,0.00,,,0.00,Wunderground v.1.15,2013-07-13 06:50:00,
2013-07-13 02:55:00,68.7,67.8,30.01,WNW,293,0.0,0.0,97,0.00,,,0.00,Wunderground v.1.15,2013-07-13 06:55:00,
2013-07-13 03:00:00,68.6,67.7,30.02,WNW,293,0.0,0.0,97,0.00,,,0.00,Wunderground v.1.15,2013-07-13 07:00:00,
2013-07-13 03:05:00,68.7,67.8,30.02,WNW,293,0.0,0.0,97,0.00,,,0.00,Wunderground v.1.15,2013-07-13 07:05:00,
2013-07-13 03:10:00,68.8,67.9,30.02,WNW,293,0.0,0.0,97,0.00,,,0.00,Wunderground v.1.15,2013-07-13 07:10:00,
2013-07-13 03:15:00,68.8,67.9,30.02,WNW,293,0.0,0.0,97,0.00,,,0.00,Wunderground v.1.15,2013-07-13 07:15:00,
2013-07-13 03:20:00,68.8,67.9,30.02,WNW,293,0.0,0.0,97,0.00,,,0.00,Wunderground v.1.15,2013-07-13 07:20:00,
2013-07-13 03:25:00,68.9,68.0,30.03,WNW,293,0.0,0.0,97,0.00,,,0.00,Wunderground v.1.15,2013-07-13 07:25:00,
2013-07-13 03:30:00,68.9,68.0,30.03,WNW,293,0.0,0.0,97,0.00,,,0.00,Wunderground v.1.15,2013-07-13 07:30:00,
2013-07-13 03:35:00,68.9,68.0,30.03,WNW,293,0.0,0.0,97,0.00,,,0.00,Wunderground v.1.15,2013-07-13 07:35:00,
2013-07-13 03:40:00,68.8,67.9,30.03,WNW,293,0.0,0.0,97,0.00,,,0.00,Wunderground v.1.15,2013-07-13 07:40:00,
2013-07-13 03:45:00,68.9,68.0,30.03,WNW,293,0.0,0.0,97,0.00,,,0.00,Wunderground v.1.15,2013-07-13 07:45:00,
2013-07-13 03:50:00,68.9,68.0,30.03,WNW,293,0.0,0.0,97,0.00,,,0.00,Wunderground v.1.15,2013-07-13 07:50:00,
2013-07-13 03:55:00,69.0,68.1,30.03,WNW,293,0.0,0.0,97,0.00,,,0.00,Wunderground v.1.15,2013-07-13 07:55:00,
2013-07-13 04:00:00,68.9,68.0,30.03,WNW,293,0.0,0.0,97,0.00,,,0.00,Wunderground v.1.15,2013-07-13 08:00:00,
2013-07-13 04:05:00,68.9,68.0,30.03,WNW,293,0.0,0.0,97,0.00,,,0.00,Wunderground v.1.15,2013-07-13 08:05:00,
2013-07-13 04:10:00,68.9,68.0,30.03,WNW,293,0.0,0.0,97,0.00,,,0.00,Wunderground v.1.15,2013-07-13 08:10:00,
2013-07-13 04:15:00,68.9,68.0,30.03,WNW,293,0.0,0.0,97,0.00,,,0.00,Wunderground v.1.15,2013-07-13 08:15:00,
2013-07-13 04:20:00,68.8,67.9,30.03,WNW,293,0.0,0.0,97,0.00,,,0.00,Wunderground v.1.15,2013-07-13 08:20:00,
2013-07-13 04:25:00,68.8,67.9,30.03,WNW,293,0.0,0.0,97,0.00,,,0.00,Wunderground v.1.15,2013-07-13 08:25:00,
2013-07-13 04:30:00,68.8,67.9,30.03,WNW,293,0.0,0.0,97,0.00,,,0.00,Wunderground v.1.15,2013-07-13 08:30:00,
2013-07-13 04:35:00,68.8,67.9,30.03,WNW,293,0.0,0.0,97,0.00,,,0.00,Wunderground v.1.15,2013-07-13 08:35:00,
2013-07-13 04:40:00,68.8,67.9,30.03,WNW,293,0.0,0.0,97,0.00,,,0.00,Wunderground v.1.15,2013-07-13 08:40:00,
2013-07-13 04:45:00,68.8,67.9,30.04,WNW,293,0.0,0.0,97,0.00,,,0.00,Wunderground v.1.15,2013-07-13 08:45:00,
2013-07-13 04:50:00,68.8,67.9,30.04,WNW,293,0.0,0.0,97,0.00,,,0.00,Wunderground v.1.15,2013-07-13 08:50:00,
2013-07-13 04:55:00,68.8,67.9,30.04,WNW,293,0.0,0.0,97,0.00,,,0.00,Wunderground v.1.15,2013-07-13 08:55:00,
2013-07-13 05:00:00,68.7,67.8,30.04,WNW,293,0.0,0.0,97,0.00,,,0.00,Wunderground v.1.15,2013-07-13 09:00:00,
2013-07-13 05:05:00,68.7,67.8,30.04,WNW,293,0.0,0.0,97,0.00,,,0.00,Wunderground v.1.15,2013-07-13 09:05:00,
2013-07-13 05:10:00,68.8,67.9,30.03,WNW,293,0.0,0.0,97,0.00,,,0.00,Wunderground v.1.15,2013-07-13 09:10:00,
2013-07-13 05:15:00,68.7,67.8,30.04,WNW,293,0.0,0.0,97,0.00,,,0.00,Wunderground v.1.15,2013-07-13 09:15:00,
2013-07-13 05:20:00,68.7,67.8,30.04,WNW,293,0.0,0.0,97,0.00,,,0.00,Wunderground v.1.15,2013-07-13 09:20:00,
2013-07-13 05:25:00,68.7,67.8,30.04,WNW,293,0.0,0.0,97,0.00,,,0.00,Wunderground v.1.15,2013-07-13 09:25:00,
2013-07-13 05:30:00,68.7,67.8,30.04,WNW,293,0.0,0.0,97,0.00,,,0.00,Wunderground v.1.15,2013-07-13 09:30:00,
2013-07-13 05:35:00,68.7,67.8,30.05,WNW,293,0.0,0.0,97,0.00,,,0.00,Wunderground v.1.15,2013-07-13 09:35:00,
2013-07-13 05:40:00,68.7,67.8,30.04,WNW,293,0.0,0.0,97,0.00,,,0.00,Wunderground v.1.15,2013-07-13 09:40:00,
2013-07-13 05:46:00,68.7,67.8,30.05,WNW,293,0.0,0.0,97,0.00,,,0.00,Wunderground v.1.15,2013-07-13 09:46:00,
2013-07-13 05:51:00,68.7,67.8,30.05,WNW,293,0.0,0.0,97,0.00,,,0.00,Wunderground v.1.15,2013-07-13 09:51:00,
2013-07-13 05:56:00,68.8,67.9,30.05,WNW,293,0.0,0.0,97,0.00,,,0.00,Wunderground v.1.15,2013-07-13 09:56:00,
2013-07-13 06:01:00,68.8,67.9,30.05,WNW,293,0.0,0.0,97,0.00,,,0.00,Wunderground v.1.15,2013-07-13 10:01:00,
2013-07-13 06:06:00,68.7,67.8,30.06,WNW,293,0.0,0.0,97,0.00,,,0.00,Wunderground v.1.15,2013-07-13 10:06:00,
2013-07-13 06:11:00,68.8,67.9,30.06,WNW,293,0.0,0.0,97,0.00,,,0.00,Wunderground v.1.15,2013-07-13 10:11:00,
2013-07-13 06:16:00,68.8,67.9,30.07,WNW,293,0.0,0.0,97,0.00,,,0.00,Wunderground v.1.15,2013-07-13 10:16:00,
2013-07-13 06:21:00,68.9,68.0,30.07,WNW,293,0.0,0.0,97,0.00,,,0.00,Wunderground v.1.15,2013-07-13 10:21:00,
2013-07-13 06:26:00,68.8,67.9,30.07,WNW,293,0.0,0.0,97,0.00,,,0.00,Wunderground v.1.15,2013-07-13 10:26:00,
2013-07-13 06:31:00,68.9,68.0,30.07,WNW,293,0.0,0.0,97,0.00,,,0.00,Wunderground v.1.15,2013-07-13 10:31:00,
2013-07-13 06:36:00,68.8,67.9,30.07,WNW,293,0.0,0.0,97,0.00,,,0.00,Wunderground v.1.15,2013-07-13 10:36:00,
2013-07-13 06:41:00,69.0,68.1,30.07,WNW,293,0.0,0.0,97,0.00,,,0.00,Wunderground v.1.15,2013-07-13 10:41:00,
2013-07-13 06:46:00,69.1,68.5,30.07,WNW,293,0.0,0.0,98,0.00,,,0.00,Wunderground v.1.15,2013-07-13 10:46:00,
2013-07-13 06:51:00,69.1,68.2,30.08,WNW,293,0.0,0.0,97,0.00,,,0.00,Wunderground v.1.15,2013-07-13 10:51:00,
2013-07-13 06:56:00,69.1,68.2,30.08,WNW,293,0.0,0.0,97,0.00,,,0.00,Wunderground v.1.15,2013-07-13 10:56:00,
2013-07-13 07:01:00,69.1,68.2,30.08,WNW,293,0.0,0.0,97,0.00,,,0.00,Wunderground v.1.15,2013-07-13 11:01:00,
2013-07-13 07:06:00,69.1,68.2,30.09,WNW,293,0.0,0.0,97,0.00,,,0.00,Wunderground v.1.15,2013-07-13 11:06:00,
2013-07-13 07:11:00,69.1,68.2,30.09,WNW,293,0.0,0.0,97,0.00,,,0.00,Wunderground v.1.15,2013-07-13 11:11:00,
2013-07-13 07:16:00,69.3,68.4,30.09,WNW,293,0.0,0.0,97,0.00,,,0.00,Wunderground v.1.15,2013-07-13 11:16:00,
2013-07-13 07:21:00,69.5,68.6,30.09,WNW,293,0.0,0.0,97,0.00,,,0.00,Wunderground v.1.15,2013-07-13 11:21:00,
2013-07-13 07:26:00,69.8,68.9,30.10,WNW,293,0.0,0.0,97,0.00,,,0.00,Wunderground v.1.15,2013-07-13 11:26:00,
2013-07-13 07:31:00,69.6,68.7,30.10,WNW,293,0.0,0.0,97,0.00,,,0.00,Wunderground v.1.15,2013-07-13 11:31:00,
2013-07-13 07:36:00,69.9,69.0,30.10,WNW,293,0.0,0.0,97,0.00,,,0.00,Wunderground v.1.15,2013-07-13 11:36:00,
2013-07-13 07:41:00,70.1,69.2,30.10,WNW,293,0.0,0.0,97,0.00,,,0.00,Wunderground v.1.15,2013-07-13 11:41:00,
2013-07-13 07:46:00,70.3,69.4,30.10,WNW,293,0.0,0.0,97,0.00,,,0.00,Wunderground v.1.15,2013-07-13 11:46:00,
2013-07-13 07:51:00,69.9,69.0,30.10,WNW,293,0.0,0.0,97,0.00,,,0.00,Wunderground v.1.15,2013-07-13 11:51:00,
2013-07-13 07:56:00,69.8,68.6,30.11,WNW,293,0.0,0.0,96,0.00,,,0.00,Wunderground v.1.15,2013-07-13 11:56:00,
2013-07-13 08:01:00,69.9,68.7,30.11,WNW,293,0.0,0.0,96,0.00,,,0.00,Wunderground v.1.15,2013-07-13 12:01:00,
2013-07-13 08:06:00,70.0,68.8,30.11,WNW,293,0.0,0.0,96,0.00,,,0.00,Wunderground v.1.15,2013-07-13 12:06:00,
2013-07-13 08:11:00,70.1,68.9,30.11,WNW,293,0.0,0.0,96,0.00,,,0.00,Wunderground v.1.15,2013-07-13 12:11:00,
2013-07-13 08:17:00,70.0,68.8,30.11,WNW,293,0.0,0.0,96,0.00,,,0.00,Wunderground v.1.15,2013-07-13 12:17:00,
2013-07-13 08:22:00,70.3,69.1,30.11,WNW,293,0.0,0.0,96,0.00,,,0.00,Wunderground v.1.15,2013-07-13 12:22:00,
2013-07-13 08:27:00,70.6,69.4,30.12,WNW,293,0.0,0.0,96,0.00,,,0.00,Wunderground v.1.15,2013-07-13 12:27:00,
2013-07-13 08:32:00,71.8,70.6,30.12,WNW,293,0.0,0.0,96,0.00,,,0.00,Wunderground v.1.15,2013-07-13 12:32:00,
2013-07-13 08:37:00,71.7,69.9,30.12,North,357,0.0,0.0,94,0.00,,,0.00,Wunderground v.1.15,2013-07-13 12:37:00,
2013-07-13 08:42:00,71.7,69.9,30.12,North,357,0.0,0.0,94,0.00,,,0.00,Wunderground v.1.15,2013-07-13 12:42:00,
2013-07-13 08:47:00,72.3,70.5,30.12,North,360,0.0,0.0,94,0.00,,,0.00,Wunderground v.1.15,2013-07-13 12:47:00,
2013-07-13 08:52:00,73.5,71.4,30.12,North,360,0.0,0.0,93,0.00,,,0.00,Wunderground v.1.15,2013-07-13 12:52:00,
2013-07-13 08:57:00,73.0,70.5,30.12,NNE,23,0.0,0.0,92,0.00,,,0.00,Wunderground v.1.15,2013-07-13 12:57:00,
2013-07-13 09:02:00,74.0,71.2,30.12,NE,45,0.0,0.0,91,0.00,,,0.00,Wunderground v.1.15,2013-07-13 13:02:00,
2013-07-13 09:07:00,74.8,71.7,30.12,ENE,64,0.0,0.0,90,0.00,,,0.00,Wunderground v.1.15,2013-07-13 13:07:00,
2013-07-13 09:12:00,74.6,70.8,30.12,NE,55,0.0,0.0,88,0.00,,,0.00,Wunderground v.1.15,2013-07-13 13:12:00,
2013-07-13 09:17:00,73.8,70.0,30.12,NE,42,0.0,0.0,88,0.00,,,0.00,Wunderground v.1.15,2013-07-13 13:17:00,
2013-07-13 09:22:00,74.1,71.0,30.12,NE,43,0.0,0.0,90,0.00,,,0.00,Wunderground v.1.15,2013-07-13 13:22:00,
2013-07-13 09:27:00,74.3,70.8,30.13,NE,43,0.0,0.0,89,0.00,,,0.00,Wunderground v.1.15,2013-07-13 13:27:00,
2013-07-13 09:32:00,75.1,71.0,30.13,NE,51,0.0,0.0,87,0.00,,,0.00,Wunderground v.1.15,2013-07-13 13:32:00,
2013-07-13 09:37:00,75.8,72.3,30.14,NE,48,0.0,0.0,89,0.00,,,0.00,Wunderground v.1.15,2013-07-13 13:37:00,
2013-07-13 09:42:00,75.2,70.7,30.14,SE,125,0.0,0.0,86,0.00,,,0.00,Wunderground v.1.15,2013-07-13 13:42:00,
2013-07-13 09:47:00,75.3,70.8,30.14,SE,127,0.0,0.0,86,0.00,,,0.00,Wunderground v.1.15,2013-07-13 13:47:00,
2013-07-13 09:52:00,75.0,70.9,30.14,SE,127,0.0,0.0,87,0.00,,,0.00,Wunderground v.1.15,2013-07-13 13:52:00,
2013-07-13 09:57:00,74.8,70.7,30.14,SE,127,0.0,0.0,87,0.00,,,0.00,Wunderground v.1.15,2013-07-13 13:57:00,
2013-07-13 10:03:00,74.9,70.8,30.14,SE,127,0.0,0.0,87,0.00,,,0.00,Wunderground v.1.15,2013-07-13 14:03:00,
2013-07-13 10:08:00,75.2,70.7,30.15,NE,49,0.0,0.0,86,0.00,,,0.00,Wunderground v.1.15,2013-07-13 14:08:00,
2013-07-13 10:13:00,75.1,70.6,30.15,East,90,0.0,0.0,86,0.00,,,0.00,Wunderground v.1.15,2013-07-13 14:13:00,
2013-07-13 10:18:00,75.2,70.7,30.15,East,90,0.0,0.0,86,0.00,,,0.00,Wunderground v.1.15,2013-07-13 14:18:00,
2013-07-13 10:23:00,76.6,72.4,30.15,NE,41,0.0,0.0,87,0.00,,,0.00,Wunderground v.1.15,2013-07-13 14:23:00,
2013-07-13 10:28:00,77.0,71.1,30.15,NE,53,0.0,0.0,82,0.00,,,0.00,Wunderground v.1.15,2013-07-13 14:28:00,
2013-07-13 10:33:00,76.4,70.9,30.15,NE,53,0.0,0.0,83,0.00,,,0.00,Wunderground v.1.15,2013-07-13 14:33:00,
2013-07-13 10:38:00,76.9,70.6,30.15,East,83,0.0,0.0,81,0.00,,,0.00,Wunderground v.1.15,2013-07-13 14:38:00,
2013-07-13 10:43:00,76.6,70.7,30.15,NE,51,0.0,0.0,82,0.00,,,0.00,Wunderground v.1.15,2013-07-13 14:43:00,
2013-07-13 10:48:00,76.8,71.2,30.15,NE,53,0.0,0.0,83,0.00,,,0.00,Wunderground v.1.15,2013-07-13 14:48:00,
2013-07-13 10:53:00,76.5,70.2,30.15,SE,140,0.0,0.0,81,0.00,,,0.00,Wunderground v.1.15,2013-07-13 14:53:00,
2013-07-13 10:58:00,76.0,70.8,30.15,SE,138,0.0,0.0,84,0.00,,,0.00,Wunderground v.1.15,2013-07-13 14:58:00,
2013-07-13 11:03:00,77.8,72.6,30.15,SSW,194,0.0,0.0,84,0.00,,,0.00,Wunderground v.1.15,2013-07-13 15:03:00,
2013-07-13 11:08:00,79.1,72.0,30.15,NE,45,0.0,0.0,79,0.00,,,0.00,Wunderground v.1.15,2013-07-13 15:08:00,
2013-07-13 11:13:00,79.2,73.9,30.15,WSW,246,0.0,0.0,84,0.00,,,0.00,Wunderground v.1.15,2013-07-13 15:13:00,
2013-07-13 11:18:00,78.6,72.3,30.15,SW,220,0.0,0.0,81,0.00,,,0.00,Wunderground v.1.15,2013-07-13 15:18:00,
2013-07-13 11:23:00,78.1,72.2,30.15,SW,220,0.0,0.0,82,0.00,,,0.00,Wunderground v.1.15,2013-07-13 15:23:00,
2013-07-13 11:28:00,77.6,71.7,30.15,South,180,0.0,0.0,82,0.00,,,0.00,Wunderground v.1.15,2013-07-13 15:28:00,
2013-07-13 11:33:00,77.2,71.3,30.16,SW,221,0.0,0.0,82,0.00,,,0.00,Wunderground v.1.15,2013-07-13 15:33:00,
2013-07-13 11:38:00,77.2,71.3,30.16,SW,236,0.0,0.0,82,0.00,,,0.00,Wunderground v.1.15,2013-07-13 15:38:00,
2013-07-13 11:43:00,77.3,71.4,30.16,SW,223,0.0,0.0,82,0.00,,,0.00,Wunderground v.1.15,2013-07-13 15:43:00,
2013-07-13 11:48:00,79.1,72.8,30.16,SW,223,0.0,0.0,81,0.00,,,0.00,Wunderground v.1.15,2013-07-13 15:48:00,
2013-07-13 11:53:00,78.7,70.5,30.16,SW,227,0.0,0.0,76,0.00,,,0.00,Wunderground v.1.15,2013-07-13 15:53:00,
2013-07-13 11:58:00,78.1,70.7,30.16,NE,42,0.0,0.0,78,0.00,,,0.00,Wunderground v.1.15,2013-07-13 15:58:00,
2013-07-13 12:03:00,78.7,71.6,30.16,NE,42,0.0,0.0,79,0.00,,,0.00,Wunderground v.1.15,2013-07-13 16:03:00,
2013-07-13 12:08:00,79.1,72.0,30.16,SW,229,0.0,0.0,79,0.00,,,0.00,Wunderground v.1.15,2013-07-13 16:08:00,
2013-07-13 12:13:00,78.8,71.4,30.16,ENE,69,0.0,0.0,78,0.00,,,0.00,Wunderground v.1.15,2013-07-13 16:13:00,
2013-07-13 12:18:00,78.3,70.9,30.16,ENE,71,0.0,0.0,78,0.00,,,0.00,Wunderground v.1.15,2013-07-13 16:18:00,
2013-07-13 12:23:00,78.0,71.3,30.16,NE,44,0.0,0.0,80,0.00,,,0.00,Wunderground v.1.15,2013-07-13 16:23:00,
2013-07-13 12:28:00,78.0,72.1,30.16,NNE,29,0.0,0.0,82,0.00,,,0.00,Wunderground v.1.15,2013-07-13 16:28:00,
2013-07-13 12:33:00,78.2,72.3,30.16,NNE,29,0.0,0.0,82,0.00,,,0.00,Wunderground v.1.15,2013-07-13 16:33:00,
2013-07-13 12:39:00,78.2,71.9,30.16,NNE,30,0.0,0.0,81,0.00,,,0.00,Wunderground v.1.15,2013-07-13 16:39:00,
2013-07-13 12:44:00,78.4,72.4,30.16,NNE,25,0.0,0.0,82,0.00,,,0.00,Wunderground v.1.15,2013-07-13 16:44:00,
2013-07-13 12:49:00,78.4,72.1,30.16,ENE,57,0.0,0.0,81,0.00,,,0.00,Wunderground v.1.15,2013-07-13 16:49:00,
2013-07-13 12:54:00,78.7,72.0,30.16,South,174,0.0,0.0,80,0.00,,,0.00,Wunderground v.1.15,2013-07-13 16:54:00,
2013-07-13 12:59:00,79.7,73.7,30.16,SSW,192,0.0,0.0,82,0.00,,,0.00,Wunderground v.1.15,2013-07-13 16:59:00,
2013-07-13 13:04:00,80.3,72.8,30.16,NE,55,0.0,0.0,78,0.00,,,0.00,Wunderground v.1.15,2013-07-13 17:04:00,
2013-07-13 13:09:00,81.1,73.6,30.16,SW,220,0.0,0.0,78,0.00,,,0.00,Wunderground v.1.15,2013-07-13 17:09:00,
2013-07-13 13:14:00,80.5,72.6,30.16,SSW,205,0.0,0.0,77,0.00,,,0.00,Wunderground v.1.15,2013-07-13 17:14:00,
2013-07-13 13:20:00,81.0,73.9,30.16,SSW,205,0.0,0.0,79,0.00,,,0.00,Wunderground v.1.15,2013-07-13 17:20:00,
2013-07-13 13:25:00,81.6,74.1,30.16,ESE,123,0.0,0.0,78,0.00,,,0.00,Wunderground v.1.15,2013-07-13 17:25:00,
2013-07-13 13:30:00,81.1,72.4,30.16,ESE,118,0.0,0.0,75,0.00,,,0.00,Wunderground v.1.15,2013-07-13 17:30:00,
2013-07-13 13:35:00,79.9,72.0,30.17,NE,55,0.0,0.0,77,0.00,,,0.00,Wunderground v.1.15,2013-07-13 17:35:00,
2013-07-13 13:40:00,80.2,72.3,30.17,NE,55,0.0,0.0,77,0.00,,,0.00,Wunderground v.1.15,2013-07-13 17:40:00,
2013-07-13 13:45:00,80.4,73.7,30.17,ENE,72,0.0,0.0,80,0.00,,,0.00,Wunderground v.1.15,2013-07-13 17:45:00,
2013-07-13 13:50:00,79.8,72.3,30.16,ENE,67,0.0,0.0,78,0.00,,,0.00,Wunderground v.1.15,2013-07-13 17:50:00,
2013-07-13 13:55:00,79.3,72.6,30.16,ENE,67,0.0,0.0,80,0.00,,,0.00,Wunderground v.1.15,2013-07-13 17:55:00,
2013-07-13 14:00:00,79.3,72.2,30.16,ENE,60,0.0,0.0,79,0.00,,,0.00,Wunderground v.1.15,2013-07-13 18:00:00,
2013-07-13 14:05:00,80.1,72.6,30.16,South,184,1.0,3.0,78,0.00,,,0.00,Wunderground v.1.15,2013-07-13 18:05:00,
2013-07-13 14:10:00,80.6,72.7,30.16,NE,44,1.0,3.0,77,0.00,,,0.00,Wunderground v.1.15,2013-07-13 18:10:00,
2013-07-13 14:15:00,81.3,74.2,30.16,East,95,1.0,3.0,79,0.00,,,0.00,Wunderground v.1.15,2013-07-13 18:15:00,
2013-07-13 14:20:00,82.3,75.1,30.16,SW,217,2.0,2.0,79,0.00,,,0.00,Wunderground v.1.15,2013-07-13 18:20:00,
2013-07-13 14:25:00,82.0,74.5,30.16,ENE,62,0.0,3.0,78,0.00,,,0.00,Wunderground v.1.15,2013-07-13 18:25:00,
2013-07-13 14:30:00,81.8,73.9,30.16,SW,225,3.0,3.0,77,0.00,,,0.00,Wunderground v.1.15,2013-07-13 18:30:00,
2013-07-13 14:35:00,81.7,73.4,30.16,SSE,157,1.0,4.0,76,0.00,,,0.00,Wunderground v.1.15,2013-07-13 18:35:00,
2013-07-13 14:40:00,82.6,74.3,30.15,SSW,198,1.0,5.0,76,0.00,,,0.00,Wunderground v.1.15,2013-07-13 18:40:00,
2013-07-13 14:45:00,82.1,73.0,30.15,East,100,1.0,5.0,74,0.00,,,0.00,Wunderground v.1.15,2013-07-13 18:45:00,
2013-07-13 14:50:00,81.3,73.4,30.15,NE,53,0.0,2.0,77,0.00,,,0.00,Wunderground v.1.15,2013-07-13 18:50:00,
2013-07-13 14:55:00,81.8,74.3,30.16,NNW,335,3.0,3.0,78,0.00,,,0.00,Wunderground v.1.15,2013-07-13 18:55:00,
2013-07-13 15:00:00,82.4,74.8,30.16,ESE,111,2.0,2.0,78,0.00,,,0.00,Wunderground v.1.15,2013-07-13 19:00:00,
2013-07-13 15:05:00,82.5,75.3,30.16,SE,126,1.0,5.0,79,0.00,,,0.00,Wunderground v.1.15,2013-07-13 19:05:00,
2013-07-13 15:10:00,82.2,75.0,30.15,SE,127,0.0,1.0,79,0.00,,,0.00,Wunderground v.1.15,2013-07-13 19:10:00,
2013-07-13 15:15:00,81.9,74.7,30.16,South,184,1.0,3.0,79,0.00,,,0.00,Wunderground v.1.15,2013-07-13 19:15:00,
2013-07-13 15:20:00,82.9,75.3,30.15,SSW,211,2.0,2.0,78,0.00,,,0.00,Wunderground v.1.15,2013-07-13 19:20:00,
2013-07-13 15:25:00,82.7,74.4,30.16,West,280,0.0,3.0,76,0.00,,,0.00,Wunderground v.1.15,2013-07-13 19:25:00,
2013-07-13 15:30:00,83.0,74.3,30.15,SW,219,1.0,2.0,75,0.00,,,0.00,Wunderground v.1.15,2013-07-13 19:30:00,
2013-07-13 15:36:00,83.5,74.7,30.15,NW,307,1.0,4.0,75,0.00,,,0.00,Wunderground v.1.15,2013-07-13 19:36:00,
2013-07-13 15:41:00,83.8,74.2,30.15,SSW,211,1.0,2.0,73,0.00,,,0.00,Wunderground v.1.15,2013-07-13 19:41:00,
2013-07-13 15:46:00,84.4,76.4,30.15,West,264,0.0,5.0,77,0.00,,,0.00,Wunderground v.1.15,2013-07-13 19:46:00,
2013-07-13 15:51:00,83.2,73.6,30.15,East,93,1.0,2.0,73,0.00,,,0.00,Wunderground v.1.15,2013-07-13 19:51:00,
2013-07-13 15:56:00,82.5,74.6,30.16,SSW,196,2.0,4.0,77,0.00,,,0.00,Wunderground v.1.15,2013-07-13 19:56:00,
2013-07-13 16:01:00,82.1,73.8,30.16,East,90,2.0,3.0,76,0.00,,,0.00,Wunderground v.1.15,2013-07-13 20:01:00,
2013-07-13 16:06:00,82.7,74.8,30.16,SSW,203,2.0,3.0,77,0.00,,,0.00,Wunderground v.1.15,2013-07-13 20:06:00,
2013-07-13 16:11:00,82.6,73.9,30.16,SW,225,2.0,3.0,75,0.00,,,0.00,Wunderground v.1.15,2013-07-13 20:11:00,
2013-07-13 16:16:00,82.7,74.8,30.16,North,355,0.0,3.0,77,0.00,,,0.00,Wunderground v.1.15,2013-07-13 20:16:00,
2013-07-13 16:21:00,83.5,75.1,30.16,NE,52,3.0,4.0,76,0.00,,,0.00,Wunderground v.1.15,2013-07-13 20:21:00,
2013-07-13 16:26:00,83.1,73.9,30.15,NE,52,1.0,4.0,74,0.00,,,0.00,Wunderground v.1.15,2013-07-13 20:26:00,
2013-07-13 16:31:00,83.4,75.0,30.16,NE,52,0.0,1.0,76,0.00,,,0.00,Wunderground v.1.15,2013-07-13 20:31:00,
2013-07-13 16:36:00,83.6,74.4,30.15,ESE,111,3.0,4.0,74,0.00,,,0.00,Wunderground v.1.15,2013-07-13 20:36:00,
2013-07-13 16:41:00,83.8,75.4,30.15,ESE,121,1.0,2.0,76,0.00,,,0.00,Wunderground v.1.15,2013-07-13 20:41:00,
2013-07-13 16:46:00,84.1,74.1,30.15,ENE,66,0.0,4.0,72,0.00,,,0.00,Wunderground v.1.15,2013-07-13 20:46:00,
2013-07-13 16:51:00,83.0,72.6,30.16,ENE,72,0.0,2.0,71,0.00,,,0.00,Wunderground v.1.15,2013-07-13 20:51:00,
2013-07-13 16:56:00,82.3,74.0,30.16,ENE,72,0.0,2.0,76,0.00,,,0.00,Wunderground v.1.15,2013-07-13 20:56:00,
2013-07-13 17:01:00,82.6,74.7,30.15,SSE,162,1.0,3.0,77,0.00,,,0.00,Wunderground v.1.15,2013-07-13 21:01:00,
2013-07-13 17:06:00,83.8,75.8,30.15,SSW,202,2.0,5.0,77,0.00,,,0.00,Wunderground v.1.15,2013-07-13 21:06:00,
2013-07-13 17:11:00,84.1,75.3,30.15,South,187,1.0,3.0,75,0.00,,,0.00,Wunderground v.1.15,2013-07-13 21:11:00,
2013-07-13 17:16:00,83.6,74.0,30.15,ENE,76,5.0,5.0,73,0.00,,,0.00,Wunderground v.1.15,2013-07-13 21:16:00,
2013-07-13 17:22:00,82.8,74.1,30.15,East,100,0.0,1.0,75,0.00,,,0.00,Wunderground v.1.15,2013-07-13 21:22:00,
2013-07-13 17:27:00,82.5,74.6,30.15,East,101,0.0,1.0,77,0.00,,,0.00,Wunderground v.1.15,2013-07-13 21:27:00,
2013-07-13 17:32:00,82.8,74.1,30.15,East,101,0.0,1.0,75,0.00,,,0.00,Wunderground v.1.15,2013-07-13 21:32:00,
2013-07-13 17:37:00,82.6,73.9,30.16,East,101,0.0,1.0,75,0.00,,,0.00,Wunderground v.1.15,2013-07-13 21:37:00,
2013-07-13 17:42:00,82.0,73.7,30.16,East,101,0.0,1.0,76,0.00,,,0.00,Wunderground v.1.15,2013-07-13 21:42:00,
2013-07-13 17:47:00,81.9,74.0,30.16,ESE,119,0.0,3.0,77,0.00,,,0.00,Wunderground v.1.15,2013-07-13 21:47:00,
2013-07-13 17:52:00,81.4,73.5,30.16,NE,47,0.0,1.0,77,0.00,,,0.00,Wunderground v.1.15,2013-07-13 21:52:00,
2013-07-13 17:57:00,81.1,74.0,30.16,NE,47,0.0,2.0,79,0.00,,,0.00,Wunderground v.1.15,2013-07-13 21:57:00,
2013-07-13 18:02:00,81.0,73.9,30.16,NE,47,0.0,1.0,79,0.00,,,0.00,Wunderground v.1.15,2013-07-13 22:02:00,
2013-07-13 18:07:00,81.1,73.2,30.16,NE,47,0.0,2.0,77,0.00,,,0.00,Wunderground v.1.15,2013-07-13 22:07:00,
2013-07-13 18:12:00,81.1,73.6,30.16,NE,38,0.0,2.0,78,0.00,,,0.00,Wunderground v.1.15,2013-07-13 22:12:00,
2013-07-13 18:17:00,80.9,74.5,30.16,NE,38,0.0,2.0,81,0.00,,,0.00,Wunderground v.1.15,2013-07-13 22:17:00,
2013-07-13 18:22:00,80.9,73.8,30.16,NE,38,0.0,1.0,79,0.00,,,0.00,Wunderground v.1.15,2013-07-13 22:22:00,
2013-07-13 18:27:00,81.0,73.9,30.16,NE,38,0.0,1.0,79,0.00,,,0.00,Wunderground v.1.15,2013-07-13 22:27:00,
2013-07-13 18:32:00,80.7,74.0,30.17,NE,38,1.0,1.0,80,0.00,,,0.00,Wunderground v.1.15,2013-07-13 22:32:00,
2013-07-13 18:37:00,80.6,74.6,30.17,NE,36,0.0,2.0,82,0.00,,,0.00,Wunderground v.1.15,2013-07-13 22:37:00,
2013-07-13 18:42:00,80.6,73.9,30.17,NE,36,0.0,0.0,80,0.00,,,0.00,Wunderground v.1.15,2013-07-13 22:42:00,
2013-07-13 18:47:00,80.7,74.0,30.17,NE,36,0.0,0.0,80,0.00,,,0.00,Wunderground v.1.15,2013-07-13 22:47:00,
2013-07-13 18:52:00,80.7,74.0,30.18,NE,36,0.0,0.0,80,0.00,,,0.00,Wunderground v.1.15,2013-07-13 22:52:00,
2013-07-13 18:57:00,80.5,73.8,30.18,NE,36,0.0,1.0,80,0.00,,,0.00,Wunderground v.1.15,2013-07-13 22:57:00,
2013-07-13 19:02:00,80.3,73.9,30.18,NE,36,0.0,0.0,81,0.00,,,0.00,Wunderground v.1.15,2013-07-13 23:02:00,
2013-07-13 19:07:00,80.0,74.0,30.18,NE,36,0.0,0.0,82,0.00,,,0.00,Wunderground v.1.15,2013-07-13 23:07:00,
2013-07-13 19:12:00,79.8,74.5,30.17,NE,36,0.0,0.0,84,0.00,,,0.00,Wunderground v.1.15,2013-07-13 23:12:00,
2013-07-13 19:17:00,79.8,74.5,30.18,NE,36,0.0,0.0,84,0.00,,,0.00,Wunderground v.1.15,2013-07-13 23:17:00,
2013-07-13 19:22:00,80.1,74.1,30.17,NE,36,0.0,1.0,82,0.00,,,0.00,Wunderground v.1.15,2013-07-13 23:22:00,
2013-07-13 19:27:00,80.3,73.9,30.17,NE,36,0.0,1.0,81,0.00,,,0.00,Wunderground v.1.15,2013-07-13 23:27:00,
2013-07-13 19:32:00,80.4,74.4,30.17,NE,36,0.0,0.0,82,0.00,,,0.00,Wunderground v.1.15,2013-07-13 23:32:00,
2013-07-13 19:37:00,80.6,74.2,30.17,NE,36,0.0,2.0,81,0.00,,,0.00,Wunderground v.1.15,2013-07-13 23:37:00,
2013-07-13 19:42:00,80.6,73.9,30.17,NE,36,0.0,1.0,80,0.00,,,0.00,Wunderground v.1.15,2013-07-13 23:42:00,
2013-07-13 19:47:00,80.5,74.5,30.17,NE,36,0.0,2.0,82,0.00,,,0.00,Wunderground v.1.15,2013-07-13 23:47:00,
2013-07-13 19:52:00,80.1,74.1,30.17,NE,36,0.0,2.0,82,0.00,,,0.00,Wunderground v.1.15,2013-07-13 23:52:00,
2013-07-13 19:57:00,80.0,74.0,30.17,NE,36,0.0,2.0,82,0.00,,,0.00,Wunderground v.1.15,2013-07-13 23:57:00,
2013-07-13 20:02:00,79.6,74.0,30.17,NE,36,1.0,2.0,83,0.00,,,0.00,Wunderground v.1.15,2013-07-14 00:02:00,
2013-07-13 20:07:00,79.8,74.2,30.18,NE,36,1.0,3.0,83,0.00,,,0.00,Wunderground v.1.15,2013-07-14 00:07:00,
2013-07-13 20:12:00,79.7,74.4,30.18,NE,36,1.0,1.0,84,0.00,,,0.00,Wunderground v.1.15,2013-07-14 00:12:00,
2013-07-13 20:17:00,79.6,74.0,30.18,NE,36,0.0,1.0,83,0.00,,,0.00,Wunderground v.1.15,2013-07-14 00:17:00,
2013-07-13 20:23:00,79.6,74.0,30.18,NE,36,0.0,2.0,83,0.00,,,0.00,Wunderground v.1.15,2013-07-14 00:23:00,
2013-07-13 20:28:00,79.8,73.8,30.18,NNE,32,1.0,2.0,82,0.00,,,0.00,Wunderground v.1.15,2013-07-14 00:28:00,
2013-07-13 20:33:00,79.6,73.6,30.19,NNE,32,0.0,1.0,82,0.00,,,0.00,Wunderground v.1.15,2013-07-14 00:33:00,
2013-07-13 20:38:00,79.2,73.6,30.19,NNE,32,1.0,2.0,83,0.00,,,0.00,Wunderground v.1.15,2013-07-14 00:38:00,
2013-07-13 20:43:00,79.2,73.6,30.19,NE,42,2.0,3.0,83,0.00,,,0.00,Wunderground v.1.15,2013-07-14 00:43:00,
2013-07-13 20:48:00,79.2,73.6,30.19,NE,42,0.0,3.0,83,0.00,,,0.00,Wunderground v.1.15,2013-07-14 00:48:00,
2013-07-13 20:53:00,79.1,73.5,30.19,NE,42,2.0,2.0,83,0.00,,,0.00,Wunderground v.1.15,2013-07-14 00:53:00,
2013-07-13 20:58:00,78.8,73.6,30.19,NE,44,2.0,3.0,84,0.00,,,0.00,Wunderground v.1.15,2013-07-14 00:58:00,
2013-07-13 21:03:00,78.7,73.8,30.19,NE,53,3.0,5.0,85,0.00,,,0.00,Wunderground v.1.15,2013-07-14 01:03:00,
2013-07-13 21:08:00,78.5,74.0,30.19,NE,53,3.0,5.0,86,0.00,,,0.00,Wunderground v.1.15,2013-07-14 01:08:00,
2013-07-13 21:13:00,78.1,73.9,30.20,ENE,58,1.0,3.0,87,0.00,,,0.00,Wunderground v.1.15,2013-07-14 01:13:00,
2013-07-13 21:18:00,77.6,73.4,30.20,ENE,58,5.0,8.0,87,0.00,,,0.00,Wunderground v.1.15,2013-07-14 01:18:00,
2013-07-13 21:23:00,77.2,73.0,30.20,ENE,63,1.0,6.0,87,0.00,,,0.00,Wunderground v.1.15,2013-07-14 01:23:00,
2013-07-13 21:28:00,76.9,72.7,30.20,NE,55,0.0,6.0,87,0.00,,,0.00,Wunderground v.1.15,2013-07-14 01:28:00,
2013-07-13 21:33:00,76.6,72.4,30.21,ENE,76,1.0,2.0,87,0.00,,,0.00,Wunderground v.1.15,2013-07-14 01:33:00,
2013-07-13 21:38:00,76.3,71.8,30.21,NE,42,1.0,3.0,86,0.00,,,0.00,Wunderground v.1.15,2013-07-14 01:38:00,
2013-07-13 21:43:00,76.1,71.3,30.21,NE,42,1.0,3.0,85,0.00,,,0.00,Wunderground v.1.15,2013-07-14 01:43:00,
2013-07-13 21:48:00,75.8,71.0,30.22,NE,42,0.0,3.0,85,0.00,,,0.00,Wunderground v.1.15,2013-07-14 01:48:00,
2013-07-13 21:53:00,75.7,70.9,30.22,NE,42,1.0,1.0,85,0.00,,,0.00,Wunderground v.1.15,2013-07-14 01:53:00,
2013-07-13 21:58:00,75.6,70.8,30.22,ESE,117,0.0,3.0,85,0.00,,,0.00,Wunderground v.1.15,2013-07-14 01:58:00,
2013-07-13 22:03:00,75.3,70.5,30.22,ESE,117,0.0,2.0,85,0.00,,,0.00,Wunderground v.1.15,2013-07-14 02:03:00,
2013-07-13 22:08:00,75.2,70.4,30.23,ESE,117,0.0,2.0,85,0.00,,,0.00,Wunderground v.1.15,2013-07-14 02:08:00,
2013-07-13 22:13:00,75.1,70.6,30.23,ESE,117,1.0,1.0,86,0.00,,,0.00,Wunderground v.1.15,2013-07-14 02:13:00,
2013-07-13 22:18:00,74.9,70.4,30.23,ESE,116,0.0,2.0,86,0.00,,,0.00,Wunderground v.1.15,2013-07-14 02:18:00,
2013-07-13 22:23:00,74.8,70.7,30.23,ESE,116,1.0,1.0,87,0.00,,,0.00,Wunderground v.1.15,2013-07-14 02:23:00,
2013-07-13 22:28:00,74.6,70.5,30.23,ESE,113,1.0,2.0,87,0.00,,,0.00,Wunderground v.1.15,2013-07-14 02:28:00,
2013-07-13 22:33:00,74.5,70.4,30.23,ESE,113,0.0,2.0,87,0.00,,,0.00,Wunderground v.1.15,2013-07-14 02:33:00,
2013-07-13 22:38:00,74.4,70.3,30.23,ESE,113,2.0,2.0,87,0.00,,,0.00,Wunderground v.1.15,2013-07-14 02:38:00,
2013-07-13 22:43:00,74.4,70.6,30.23,ENE,67,1.0,3.0,88,0.00,,,0.00,Wunderground v.1.15,2013-07-14 02:43:00,
2013-07-13 22:48:00,74.6,70.8,30.23,NNE,19,1.0,4.0,88,0.00,,,0.00,Wunderground v.1.15,2013-07-14 02:48:00,
2013-07-13 22:53:00,74.6,70.8,30.24,East,84,2.0,3.0,88,0.00,,,0.00,Wunderground v.1.15,2013-07-14 02:53:00,
2013-07-13 22:58:00,74.5,70.7,30.24,East,84,1.0,3.0,88,0.00,,,0.00,Wunderground v.1.15,2013-07-14 02:58:00,
2013-07-13 23:03:00,74.5,70.7,30.24,East,84,1.0,1.0,88,0.00,,,0.00,Wunderground v.1.15,2013-07-14 03:03:00,
2013-07-13 23:08:00,74.6,71.1,30.24,East,84,1.0,2.0,89,0.00,,,0.00,Wunderground v.1.15,2013-07-14 03:08:00,
2013-07-13 23:13:00,74.5,71.0,30.24,East,84,0.0,2.0,89,0.00,,,0.00,Wunderground v.1.15,2013-07-14 03:13:00,
2013-07-13 23:18:00,74.6,71.1,30.24,East,84,0.0,2.0,89,0.00,,,0.00,Wunderground v.1.15,2013-07-14 03:18:00,
2013-07-13 23:23:00,74.5,71.4,30.24,East,84,0.0,1.0,90,0.00,,,0.00,Wunderground v.1.15,2013-07-14 03:23:00,
2013-07-13 23:28:00,74.6,71.5,30.24,ENE,76,1.0,3.0,90,0.00,,,0.00,Wunderground v.1.15,2013-07-14 03:28:00,
2013-07-13 23:33:00,74.8,71.7,30.24,ENE,75,1.0,3.0,90,0.00,,,0.00,Wunderground v.1.15,2013-07-14 03:33:00,
2013-07-13 23:38:00,74.9,72.1,30.24,NE,48,2.0,4.0,91,0.00,,,0.00,Wunderground v.1.15,2013-07-14 03:38:00,
2013-07-13 23:43:00,75.1,72.3,30.24,NE,44,4.0,5.0,91,0.00,,,0.00,Wunderground v.1.15,2013-07-14 03:43:00,
2013-07-13 23:48:00,75.3,72.5,30.25,NE,34,3.0,5.0,91,0.00,,,0.00,Wunderground v.1.15,2013-07-14 03:48:00,
2013-07-13 23:53:00,75.2,72.4,30.25,ENE,59,3.0,3.0,91,0.00,,,0.00,Wunderground v.1.15,2013-07-14 03:53:00,
2013-07-13 23:58:00,75.1,72.3,30.25,NE,45,3.0,3.0,91,0.00,,,0.00,Wunderground v.1.15,2013-07-14 03:58:00,